sensor_id;sensor_type;location;lat;lon;timestamp;pressure;altitude;pressure_sealevel;temperature;humidity
57628;BME280;43451;49.060;10.616;2024-01-30T00:01:05;98137.91;;;-0.90;100.00
57628;BME280;43451;49.060;10.616;2024-01-30T00:03:30;98136.03;;;-0.89;100.00
57628;BME280;43451;49.060;10.616;2024-01-30T00:05:55;98130.88;;;-0.81;100.00
57628;BME280;43451;49.060;10.616;2024-01-30T00:08:21;98135.16;;;-0.56;100.00
57628;BME280;43451;49.060;10.616;2024-01-30T00:10:46;98124.25;;;-0.35;100.00
57628;BME280;43451;49.060;10.616;2024-01-30T00:13:12;98134.16;;;-0.60;100.00
57628;BME280;43451;49.060;10.616;2024-01-30T00:15:39;98133.97;;;-0.68;100.00
57628;BME280;43451;49.060;10.616;2024-01-30T00:18:04;98133.19;;;-0.69;100.00
57628;BME280;43451;49.060;10.616;2024-01-30T00:20:30;98123.00;;;-0.67;100.00
57628;BME280;43451;49.060;10.616;2024-01-30T00:22:55;98131.28;;;-0.44;100.00
57628;BME280;43451;49.060;10.616;2024-01-30T00:25:21;98128.47;;;-0.53;100.00
57628;BME280;43451;49.060;10.616;2024-01-30T00:27:46;98128.81;;;-0.60;100.00
57628;BME280;43451;49.060;10.616;2024-01-30T00:30:12;98124.53;;;-0.61;100.00
57628;BME280;43451;49.060;10.616;2024-01-30T00:32:37;98130.84;;;-0.52;100.00
57628;BME280;43451;49.060;10.616;2024-01-30T00:35:03;98119.34;;;-0.47;100.00
57628;BME280;43451;49.060;10.616;2024-01-30T00:37:29;98116.81;;;-0.38;100.00
57628;BME280;43451;49.060;10.616;2024-01-30T00:39:54;98115.75;;;-0.37;100.00
57628;BME280;43451;49.060;10.616;2024-01-30T00:42:20;98122.44;;;-0.40;100.00
57628;BME280;43451;49.060;10.616;2024-01-30T00:44:45;98119.44;;;-0.33;100.00
57628;BME280;43451;49.060;10.616;2024-01-30T00:47:10;98118.00;;;-0.26;100.00
57628;BME280;43451;49.060;10.616;2024-01-30T00:49:36;98111.41;;;-0.33;100.00
57628;BME280;43451;49.060;10.616;2024-01-30T00:52:02;98112.25;;;-0.14;100.00
57628;BME280;43451;49.060;10.616;2024-01-30T00:54:27;98106.06;;;-0.09;100.00
57628;BME280;43451;49.060;10.616;2024-01-30T00:56:53;98107.41;;;-0.12;100.00
57628;BME280;43451;49.060;10.616;2024-01-30T00:59:18;98103.09;;;-0.08;100.00
57628;BME280;43451;49.060;10.616;2024-01-30T01:01:44;98112.09;;;-0.04;100.00
57628;BME280;43451;49.060;10.616;2024-01-30T01:04:09;98120.25;;;-0.14;100.00
57628;BME280;43451;49.060;10.616;2024-01-30T01:06:35;98126.75;;;-0.20;100.00
57628;BME280;43451;49.060;10.616;2024-01-30T01:09:00;98124.16;;;-0.25;100.00
57628;BME280;43451;49.060;10.616;2024-01-30T01:11:26;98113.34;;;-0.15;100.00
57628;BME280;43451;49.060;10.616;2024-01-30T01:13:51;98112.72;;;-0.31;100.00
57628;BME280;43451;49.060;10.616;2024-01-30T01:16:17;98122.22;;;-0.43;100.00
57628;BME280;43451;49.060;10.616;2024-01-30T01:18:42;98119.59;;;-0.49;100.00
57628;BME280;43451;49.060;10.616;2024-01-30T01:21:08;98111.53;;;-0.43;100.00
57628;BME280;43451;49.060;10.616;2024-01-30T01:23:33;98117.31;;;-0.60;100.00
57628;BME280;43451;49.060;10.616;2024-01-30T01:25:59;98120.63;;;-0.44;100.00
57628;BME280;43451;49.060;10.616;2024-01-30T01:28:26;98109.50;;;-0.52;100.00
57628;BME280;43451;49.060;10.616;2024-01-30T01:30:52;98120.63;;;-0.44;100.00
57628;BME280;43451;49.060;10.616;2024-01-30T01:33:17;98129.16;;;-0.42;100.00
57628;BME280;43451;49.060;10.616;2024-01-30T01:35:43;98117.78;;;-0.53;100.00
57628;BME280;43451;49.060;10.616;2024-01-30T01:38:08;98123.34;;;-0.50;100.00
57628;BME280;43451;49.060;10.616;2024-01-30T01:40:34;98119.81;;;-0.45;100.00
57628;BME280;43451;49.060;10.616;2024-01-30T01:43:03;98115.56;;;-0.46;100.00
57628;BME280;43451;49.060;10.616;2024-01-30T01:45:30;98116.72;;;-0.52;100.00
57628;BME280;43451;49.060;10.616;2024-01-30T01:47:55;98112.81;;;-0.60;100.00
57628;BME280;43451;49.060;10.616;2024-01-30T01:50:21;98107.50;;;-0.65;100.00
57628;BME280;43451;49.060;10.616;2024-01-30T01:52:47;98108.38;;;-0.69;100.00
57628;BME280;43451;49.060;10.616;2024-01-30T01:55:17;98099.38;;;-0.55;100.00
57628;BME280;43451;49.060;10.616;2024-01-30T01:57:46;98099.78;;;-0.42;100.00
57628;BME280;43451;49.060;10.616;2024-01-30T02:00:12;98100.06;;;-0.44;100.00
57628;BME280;43451;49.060;10.616;2024-01-30T02:02:38;98104.16;;;-0.52;100.00
57628;BME280;43451;49.060;10.616;2024-01-30T02:05:04;98100.00;;;-0.39;100.00
57628;BME280;43451;49.060;10.616;2024-01-30T02:07:30;98090.19;;;-0.43;100.00
57628;BME280;43451;49.060;10.616;2024-01-30T02:09:56;98094.22;;;-0.46;100.00
57628;BME280;43451;49.060;10.616;2024-01-30T02:12:22;98085.50;;;-0.33;100.00
57628;BME280;43451;49.060;10.616;2024-01-30T02:14:48;98096.59;;;-0.44;100.00
57628;BME280;43451;49.060;10.616;2024-01-30T02:17:15;98101.56;;;-0.57;100.00
57628;BME280;43451;49.060;10.616;2024-01-30T02:19:41;98092.25;;;-0.59;100.00
57628;BME280;43451;49.060;10.616;2024-01-30T02:22:07;98095.75;;;-0.64;100.00
57628;BME280;43451;49.060;10.616;2024-01-30T02:24:33;98094.38;;;-0.61;100.00
57628;BME280;43451;49.060;10.616;2024-01-30T02:26:59;98094.63;;;-0.58;100.00
57628;BME280;43451;49.060;10.616;2024-01-30T02:29:24;98105.59;;;-0.59;100.00
57628;BME280;43451;49.060;10.616;2024-01-30T02:31:50;98094.03;;;-0.55;100.00
57628;BME280;43451;49.060;10.616;2024-01-30T02:34:16;98094.34;;;-0.56;100.00
57628;BME280;43451;49.060;10.616;2024-01-30T02:36:44;98086.56;;;-0.53;100.00
57628;BME280;43451;49.060;10.616;2024-01-30T02:39:10;98090.94;;;-0.62;100.00
57628;BME280;43451;49.060;10.616;2024-01-30T02:41:36;98088.84;;;-0.65;100.00
57628;BME280;43451;49.060;10.616;2024-01-30T02:44:05;98101.94;;;-0.68;100.00
57628;BME280;43451;49.060;10.616;2024-01-30T02:46:30;98101.66;;;-0.67;100.00
57628;BME280;43451;49.060;10.616;2024-01-30T02:48:56;98101.59;;;-0.62;100.00
57628;BME280;43451;49.060;10.616;2024-01-30T02:51:21;98095.88;;;-0.50;100.00
57628;BME280;43451;49.060;10.616;2024-01-30T02:53:47;98098.47;;;-0.45;100.00
57628;BME280;43451;49.060;10.616;2024-01-30T02:56:13;98091.63;;;-0.32;100.00
57628;BME280;43451;49.060;10.616;2024-01-30T02:58:40;98098.03;;;-0.52;100.00
57628;BME280;43451;49.060;10.616;2024-01-30T03:03:42;98091.72;;;-0.61;100.00
57628;BME280;43451;49.060;10.616;2024-01-30T03:06:08;98106.41;;;-0.64;100.00
57628;BME280;43451;49.060;10.616;2024-01-30T03:08:34;98090.97;;;-0.67;100.00
57628;BME280;43451;49.060;10.616;2024-01-30T03:11:00;98093.94;;;-0.68;100.00
57628;BME280;43451;49.060;10.616;2024-01-30T03:13:26;98088.84;;;-0.65;100.00
57628;BME280;43451;49.060;10.616;2024-01-30T03:15:52;98087.81;;;-0.69;100.00
57628;BME280;43451;49.060;10.616;2024-01-30T03:18:17;98101.09;;;-0.64;100.00
57628;BME280;43451;49.060;10.616;2024-01-30T03:20:43;98087.34;;;-0.52;100.00
57628;BME280;43451;49.060;10.616;2024-01-30T03:23:08;98094.56;;;-0.53;100.00
57628;BME280;43451;49.060;10.616;2024-01-30T03:25:34;98089.19;;;-0.48;100.00
57628;BME280;43451;49.060;10.616;2024-01-30T03:27:59;98090.25;;;-0.49;100.00
57628;BME280;43451;49.060;10.616;2024-01-30T03:30:25;98096.09;;;-0.47;100.00
57628;BME280;43451;49.060;10.616;2024-01-30T03:32:51;98099.84;;;-0.48;100.00
57628;BME280;43451;49.060;10.616;2024-01-30T03:35:16;98089.06;;;-0.37;100.00
57628;BME280;43451;49.060;10.616;2024-01-30T03:37:42;98089.50;;;-0.30;100.00
57628;BME280;43451;49.060;10.616;2024-01-30T03:40:08;98094.84;;;-0.30;100.00
57628;BME280;43451;49.060;10.616;2024-01-30T03:42:33;98088.97;;;-0.32;100.00
57628;BME280;43451;49.060;10.616;2024-01-30T03:44:59;98093.13;;;-0.21;100.00
57628;BME280;43451;49.060;10.616;2024-01-30T03:47:24;98084.00;;;-0.20;100.00
57628;BME280;43451;49.060;10.616;2024-01-30T03:49:50;98086.06;;;-0.12;100.00
57628;BME280;43451;49.060;10.616;2024-01-30T03:52:15;98090.16;;;-0.01;100.00
57628;BME280;43451;49.060;10.616;2024-01-30T03:54:41;98089.00;;;0.06;100.00
57628;BME280;43451;49.060;10.616;2024-01-30T03:57:06;98087.06;;;-0.08;100.00
57628;BME280;43451;49.060;10.616;2024-01-30T03:59:32;98090.38;;;-0.16;100.00
57628;BME280;43451;49.060;10.616;2024-01-30T04:01:57;98090.09;;;0.05;100.00
57628;BME280;43451;49.060;10.616;2024-01-30T04:04:23;98086.91;;;0.03;100.00
57628;BME280;43451;49.060;10.616;2024-01-30T04:06:48;98085.38;;;-0.04;100.00
57628;BME280;43451;49.060;10.616;2024-01-30T04:09:14;98095.00;;;-0.03;100.00
57628;BME280;43451;49.060;10.616;2024-01-30T04:11:40;98085.63;;;-0.19;100.00
57628;BME280;43451;49.060;10.616;2024-01-30T04:14:05;98090.00;;;-0.28;100.00
57628;BME280;43451;49.060;10.616;2024-01-30T04:16:31;98097.56;;;-0.35;100.00
57628;BME280;43451;49.060;10.616;2024-01-30T04:18:57;98082.09;;;-0.38;100.00
57628;BME280;43451;49.060;10.616;2024-01-30T04:21:23;98096.03;;;-0.41;100.00
57628;BME280;43451;49.060;10.616;2024-01-30T04:23:52;98102.88;;;-0.35;100.00
57628;BME280;43451;49.060;10.616;2024-01-30T04:26:18;98101.34;;;-0.17;100.00
57628;BME280;43451;49.060;10.616;2024-01-30T04:28:47;98086.75;;;-0.25;100.00
57628;BME280;43451;49.060;10.616;2024-01-30T04:31:12;98094.38;;;-0.37;100.00
57628;BME280;43451;49.060;10.616;2024-01-30T04:33:38;98093.91;;;-0.44;100.00
57628;BME280;43451;49.060;10.616;2024-01-30T04:36:04;98103.09;;;-0.51;100.00
57628;BME280;43451;49.060;10.616;2024-01-30T04:38:31;98096.72;;;-0.55;100.00
57628;BME280;43451;49.060;10.616;2024-01-30T04:40:56;98102.88;;;-0.35;100.00
57628;BME280;43451;49.060;10.616;2024-01-30T04:43:22;98096.94;;;-0.27;100.00
57628;BME280;43451;49.060;10.616;2024-01-30T04:45:48;98099.47;;;-0.17;100.00
57628;BME280;43451;49.060;10.616;2024-01-30T04:48:14;98099.44;;;-0.36;100.00
57628;BME280;43451;49.060;10.616;2024-01-30T04:50:39;98099.25;;;-0.44;100.00
57628;BME280;43451;49.060;10.616;2024-01-30T04:53:05;98105.50;;;-0.54;100.00
57628;BME280;43451;49.060;10.616;2024-01-30T04:55:30;98104.16;;;-0.52;100.00
57628;BME280;43451;49.060;10.616;2024-01-30T04:57:56;98103.66;;;-0.54;100.00
57628;BME280;43451;49.060;10.616;2024-01-30T05:00:21;98107.13;;;-0.53;100.00
57628;BME280;43451;49.060;10.616;2024-01-30T05:02:47;98109.63;;;-0.62;100.00
57628;BME280;43451;49.060;10.616;2024-01-30T05:05:13;98113.38;;;-0.63;100.00
57628;BME280;43451;49.060;10.616;2024-01-30T05:07:40;98113.41;;;-0.68;100.00
57628;BME280;43451;49.060;10.616;2024-01-30T05:10:06;98106.97;;;-0.67;100.00
57628;BME280;43451;49.060;10.616;2024-01-30T05:12:32;98110.50;;;-0.72;100.00
57628;BME280;43451;49.060;10.616;2024-01-30T05:14:57;98108.94;;;-0.73;100.00
57628;BME280;43451;49.060;10.616;2024-01-30T05:17:23;98113.19;;;-0.72;100.00
57628;BME280;43451;49.060;10.616;2024-01-30T05:19:48;98120.63;;;-0.68;100.00
57628;BME280;43451;49.060;10.616;2024-01-30T05:22:14;98119.28;;;-0.66;100.00
57628;BME280;43451;49.060;10.616;2024-01-30T05:24:41;98120.41;;;-0.72;100.00
57628;BME280;43451;49.060;10.616;2024-01-30T05:27:08;98128.44;;;-0.77;100.00
57628;BME280;43451;49.060;10.616;2024-01-30T05:29:33;98129.34;;;-0.87;100.00
57628;BME280;43451;49.060;10.616;2024-01-30T05:31:59;98132.81;;;-0.86;100.00
57628;BME280;43451;49.060;10.616;2024-01-30T05:34:25;98129.81;;;-0.80;100.00
57628;BME280;43451;49.060;10.616;2024-01-30T05:36:50;98132.47;;;-0.80;100.00
57628;BME280;43451;49.060;10.616;2024-01-30T05:39:16;98128.00;;;-0.84;100.00
57628;BME280;43451;49.060;10.616;2024-01-30T05:41:41;98131.75;;;-0.85;100.00
57628;BME280;43451;49.060;10.616;2024-01-30T05:44:07;98131.19;;;-0.82;100.00
57628;BME280;43451;49.060;10.616;2024-01-30T05:46:33;98138.50;;;-0.69;100.00
57628;BME280;43451;49.060;10.616;2024-01-30T05:48:59;98138.22;;;-0.67;100.00
57628;BME280;43451;49.060;10.616;2024-01-30T05:51:24;98137.72;;;-0.69;100.00
57628;BME280;43451;49.060;10.616;2024-01-30T05:53:50;98135.88;;;-0.74;100.00
57628;BME280;43451;49.060;10.616;2024-01-30T05:56:15;98128.41;;;-0.72;100.00
57628;BME280;43451;49.060;10.616;2024-01-30T05:58:41;98131.53;;;-0.65;100.00
57628;BME280;43451;49.060;10.616;2024-01-30T06:01:08;98131.31;;;-0.68;100.00
57628;BME280;43451;49.060;10.616;2024-01-30T06:03:34;98136.34;;;-0.67;100.00
57628;BME280;43451;49.060;10.616;2024-01-30T06:06:00;98120.34;;;-0.67;100.00
57628;BME280;43451;49.060;10.616;2024-01-30T06:08:25;98124.03;;;-0.63;100.00
57628;BME280;43451;49.060;10.616;2024-01-30T06:10:51;98129.81;;;-0.56;100.00
57628;BME280;43451;49.060;10.616;2024-01-30T06:13:16;98128.84;;;-0.65;100.00
57628;BME280;43451;49.060;10.616;2024-01-30T06:15:42;98120.91;;;-0.70;100.00
57628;BME280;43451;49.060;10.616;2024-01-30T06:18:08;98131.63;;;-0.75;100.00
57628;BME280;43451;49.060;10.616;2024-01-30T06:20:34;98133.22;;;-0.74;100.00
57628;BME280;43451;49.060;10.616;2024-01-30T06:23:00;98121.72;;;-0.69;100.00
57628;BME280;43451;49.060;10.616;2024-01-30T06:25:26;98119.84;;;-0.69;100.00
57628;BME280;43451;49.060;10.616;2024-01-30T06:27:52;98126.75;;;-0.68;100.00
57628;BME280;43451;49.060;10.616;2024-01-30T06:30:18;98122.44;;;-0.64;100.00
57628;BME280;43451;49.060;10.616;2024-01-30T06:32:43;98118.13;;;-0.60;100.00
57628;BME280;43451;49.060;10.616;2024-01-30T06:35:08;98124.03;;;-0.63;100.00
57628;BME280;43451;49.060;10.616;2024-01-30T06:37:35;98124.31;;;-0.64;100.00
57628;BME280;43451;49.060;10.616;2024-01-30T06:40:01;98124.03;;;-0.63;100.00
57628;BME280;43451;49.060;10.616;2024-01-30T06:42:26;98134.72;;;-0.63;100.00
57628;BME280;43451;49.060;10.616;2024-01-30T06:44:52;98124.59;;;-0.66;100.00
57628;BME280;43451;49.060;10.616;2024-01-30T06:47:17;98133.09;;;-0.64;100.00
57628;BME280;43451;49.060;10.616;2024-01-30T06:49:43;98134.75;;;-0.68;100.00
57628;BME280;43451;49.060;10.616;2024-01-30T06:52:09;98137.66;;;-0.64;100.00
57628;BME280;43451;49.060;10.616;2024-01-30T06:54:34;98142.75;;;-0.68;100.00
57628;BME280;43451;49.060;10.616;2024-01-30T06:57:00;98140.06;;;-0.63;100.00
57628;BME280;43451;49.060;10.616;2024-01-30T06:59:26;98139.81;;;-0.66;100.00
57628;BME280;43451;49.060;10.616;2024-01-30T07:01:51;98142.25;;;-0.70;100.00
57628;BME280;43451;49.060;10.616;2024-01-30T07:04:17;98142.25;;;-0.70;100.00
57628;BME280;43451;49.060;10.616;2024-01-30T07:06:44;98143.28;;;-0.66;100.00
57628;BME280;43451;49.060;10.616;2024-01-30T07:09:09;98148.31;;;-0.64;100.00
57628;BME280;43451;49.060;10.616;2024-01-30T07:11:35;98142.16;;;-0.60;100.00
57628;BME280;43451;49.060;10.616;2024-01-30T07:14:00;98154.63;;;-0.55;100.00
57628;BME280;43451;49.060;10.616;2024-01-30T07:16:28;98154.94;;;-0.57;100.00
57628;BME280;43451;49.060;10.616;2024-01-30T07:18:54;98149.03;;;-0.54;100.00
57628;BME280;43451;49.060;10.616;2024-01-30T07:21:20;98158.31;;;-0.51;100.00
57628;BME280;43451;49.060;10.616;2024-01-30T07:23:47;98156.63;;;-0.42;100.00
57628;BME280;43451;49.060;10.616;2024-01-30T07:26:12;98160.34;;;-0.38;100.00
57628;BME280;43451;49.060;10.616;2024-01-30T07:28:38;98161.91;;;-0.37;100.00
57628;BME280;43451;49.060;10.616;2024-01-30T07:31:03;98170.16;;;-0.33;100.00
57628;BME280;43451;49.060;10.616;2024-01-30T07:33:29;98162.50;;;-0.16;100.00
57628;BME280;43451;49.060;10.616;2024-01-30T07:35:55;98161.84;;;-0.08;100.00
57628;BME280;43451;49.060;10.616;2024-01-30T07:38:20;98163.16;;;-0.05;100.00
57628;BME280;43451;49.060;10.616;2024-01-30T07:40:46;98169.22;;;0.01;100.00
57628;BME280;43451;49.060;10.616;2024-01-30T07:43:12;98165.91;;;0.09;100.00
57628;BME280;43451;49.060;10.616;2024-01-30T07:45:37;98159.19;;;0.11;100.00
57628;BME280;43451;49.060;10.616;2024-01-30T07:48:05;98166.81;;;0.23;100.00
57628;BME280;43451;49.060;10.616;2024-01-30T07:50:31;98156.34;;;0.27;100.00
57628;BME280;43451;49.060;10.616;2024-01-30T07:52:56;98158.59;;;0.38;100.00
57628;BME280;43451;49.060;10.616;2024-01-30T07:55:22;98159.06;;;0.40;100.00
57628;BME280;43451;49.060;10.616;2024-01-30T07:57:52;98158.22;;;0.45;100.00
57628;BME280;43451;49.060;10.616;2024-01-30T08:00:19;98165.34;;;0.50;100.00
57628;BME280;43451;49.060;10.616;2024-01-30T08:02:47;98162.63;;;0.55;100.00
57628;BME280;43451;49.060;10.616;2024-01-30T08:05:13;98164.41;;;0.59;100.00
57628;BME280;43451;49.060;10.616;2024-01-30T08:07:43;98164.03;;;0.66;100.00
57628;BME280;43451;49.060;10.616;2024-01-30T08:10:11;98159.03;;;0.78;100.00
57628;BME280;43451;49.060;10.616;2024-01-30T08:12:36;98154.63;;;0.87;100.00
57628;BME280;43451;49.060;10.616;2024-01-30T08:15:02;98152.31;;;1.13;100.00
57628;BME280;43451;49.060;10.616;2024-01-30T08:17:28;98152.81;;;1.02;100.00
57628;BME280;43451;49.060;10.616;2024-01-30T08:19:54;98149.81;;;1.03;100.00
57628;BME280;43451;49.060;10.616;2024-01-30T08:22:19;98140.31;;;1.11;100.00
57628;BME280;43451;49.060;10.616;2024-01-30T08:24:45;98156.72;;;1.37;100.00
57628;BME280;43451;49.060;10.616;2024-01-30T08:27:10;98153.56;;;1.49;100.00
57628;BME280;43451;49.060;10.616;2024-01-30T08:29:37;98153.78;;;1.66;100.00
57628;BME280;43451;49.060;10.616;2024-01-30T08:32:04;98153.28;;;1.78;100.00
57628;BME280;43451;49.060;10.616;2024-01-30T08:34:29;98144.63;;;1.95;100.00
57628;BME280;43451;49.060;10.616;2024-01-30T08:36:55;98150.66;;;2.14;100.00
57628;BME280;43451;49.060;10.616;2024-01-30T08:39:20;98144.19;;;2.29;100.00
57628;BME280;43451;49.060;10.616;2024-01-30T08:41:46;98150.00;;;2.45;100.00
57628;BME280;43451;49.060;10.616;2024-01-30T08:44:11;98149.16;;;2.58;100.00
57628;BME280;43451;49.060;10.616;2024-01-30T08:46:37;98139.72;;;2.61;100.00
57628;BME280;43451;49.060;10.616;2024-01-30T08:49:02;98154.97;;;2.74;100.00
57628;BME280;43451;49.060;10.616;2024-01-30T08:51:30;98152.38;;;2.83;100.00
57628;BME280;43451;49.060;10.616;2024-01-30T08:53:55;98152.38;;;2.83;100.00
57628;BME280;43451;49.060;10.616;2024-01-30T08:56:21;98152.84;;;2.85;100.00
57628;BME280;43451;49.060;10.616;2024-01-30T08:58:47;98157.94;;;2.95;100.00
57628;BME280;43451;49.060;10.616;2024-01-30T09:01:12;98150.63;;;3.09;100.00
57628;BME280;43451;49.060;10.616;2024-01-30T09:03:39;98150.03;;;3.12;100.00
57628;BME280;43451;49.060;10.616;2024-01-30T09:06:15;98154.03;;;3.23;100.00
57628;BME280;43451;49.060;10.616;2024-01-30T09:08:40;98158.66;;;3.32;100.00
57628;BME280;43451;49.060;10.616;2024-01-30T09:11:10;98155.69;;;3.33;100.00
57628;BME280;43451;49.060;10.616;2024-01-30T09:13:36;98152.06;;;3.38;100.00
57628;BME280;43451;49.060;10.616;2024-01-30T09:16:02;98151.94;;;3.52;100.00
57628;BME280;43451;49.060;10.616;2024-01-30T09:18:28;98158.94;;;3.61;100.00
57628;BME280;43451;49.060;10.616;2024-01-30T09:20:53;98152.66;;;3.66;100.00
57628;BME280;43451;49.060;10.616;2024-01-30T09:23:19;98154.91;;;3.72;100.00
57628;BME280;43451;49.060;10.616;2024-01-30T09:25:45;98146.69;;;3.78;100.00
57628;BME280;43451;49.060;10.616;2024-01-30T09:28:10;98153.53;;;3.84;100.00
57628;BME280;43451;49.060;10.616;2024-01-30T09:30:36;98159.94;;;3.74;100.00
57628;BME280;43451;49.060;10.616;2024-01-30T09:33:02;98158.06;;;3.75;100.00
57628;BME280;43451;49.060;10.616;2024-01-30T09:35:27;98161.09;;;3.82;100.00
57628;BME280;43451;49.060;10.616;2024-01-30T09:37:54;98161.84;;;3.65;100.00
57628;BME280;43451;49.060;10.616;2024-01-30T09:40:19;98157.75;;;3.76;100.00
57628;BME280;43451;49.060;10.616;2024-01-30T09:42:50;98161.28;;;3.94;100.00
57628;BME280;43451;49.060;10.616;2024-01-30T09:45:17;98154.22;;;4.07;100.00
57628;BME280;43451;49.060;10.616;2024-01-30T09:47:44;98166.56;;;4.16;100.00
57628;BME280;43451;49.060;10.616;2024-01-30T09:50:12;98166.56;;;4.16;100.00
57628;BME280;43451;49.060;10.616;2024-01-30T09:52:39;98159.78;;;4.28;100.00
57628;BME280;43451;49.060;10.616;2024-01-30T09:55:06;98160.88;;;4.27;100.00
57628;BME280;43451;49.060;10.616;2024-01-30T09:57:32;98157.25;;;4.31;100.00
57628;BME280;43451;49.060;10.616;2024-01-30T09:59:58;98168.47;;;4.25;100.00
57628;BME280;43451;49.060;10.616;2024-01-30T10:02:23;98158.34;;;4.22;100.00
57628;BME280;43451;49.060;10.616;2024-01-30T10:04:50;98160.25;;;4.30;100.00
57628;BME280;43451;49.060;10.616;2024-01-30T10:07:19;98169.28;;;4.42;100.00
57628;BME280;43451;49.060;10.616;2024-01-30T10:09:45;98170.75;;;4.57;100.00
57628;BME280;43451;49.060;10.616;2024-01-30T10:12:12;98156.00;;;4.72;100.00
57628;BME280;43451;49.060;10.616;2024-01-30T10:14:41;98167.91;;;4.80;100.00
57628;BME280;43451;49.060;10.616;2024-01-30T10:17:11;98164.09;;;4.63;100.00
57628;BME280;43451;49.060;10.616;2024-01-30T10:19:41;98153.63;;;4.62;100.00
57628;BME280;43451;49.060;10.616;2024-01-30T10:22:07;98159.81;;;4.62;100.00
57628;BME280;43451;49.060;10.616;2024-01-30T10:24:34;98159.03;;;4.62;100.00
57628;BME280;43451;49.060;10.616;2024-01-30T10:26:59;98152.38;;;4.68;100.00
57628;BME280;43451;49.060;10.616;2024-01-30T10:29:25;98142.41;;;4.77;100.00
57628;BME280;43451;49.060;10.616;2024-01-30T10:32:17;98141.59;;;4.77;100.00
57628;BME280;43451;49.060;10.616;2024-01-30T10:34:43;98143.81;;;4.92;100.00
57628;BME280;43451;49.060;10.616;2024-01-30T10:37:10;98142.06;;;4.87;100.00
57628;BME280;43451;49.060;10.616;2024-01-30T10:39:42;98144.91;;;5.08;100.00
57628;BME280;43451;49.060;10.616;2024-01-30T10:42:18;98145.00;;;5.29;100.00
57628;BME280;43451;49.060;10.616;2024-01-30T10:44:59;98142.13;;;5.43;100.00
57628;BME280;43451;49.060;10.616;2024-01-30T10:47:27;98142.53;;;5.63;100.00
57628;BME280;43451;49.060;10.616;2024-01-30T10:49:54;98142.91;;;5.82;100.00
57628;BME280;43451;49.060;10.616;2024-01-30T10:52:20;98131.72;;;5.71;100.00
57628;BME280;43451;49.060;10.616;2024-01-30T10:54:46;98130.06;;;5.79;100.00
57628;BME280;43451;49.060;10.616;2024-01-30T10:57:13;98133.09;;;5.77;100.00
57628;BME280;43451;49.060;10.616;2024-01-30T10:59:40;98130.63;;;5.64;100.00
57628;BME280;43451;49.060;10.616;2024-01-30T11:02:06;98128.56;;;5.61;100.00
57628;BME280;43451;49.060;10.616;2024-01-30T11:04:36;98131.25;;;5.61;100.00
57628;BME280;43451;49.060;10.616;2024-01-30T11:07:02;98134.44;;;5.63;100.00
57628;BME280;43451;49.060;10.616;2024-01-30T11:09:29;98121.44;;;5.65;100.00
57628;BME280;43451;49.060;10.616;2024-01-30T11:11:58;98128.41;;;5.66;100.00
57628;BME280;43451;49.060;10.616;2024-01-30T11:14:29;98126.47;;;5.66;100.00
57628;BME280;43451;49.060;10.616;2024-01-30T11:16:58;98128.19;;;5.71;100.00
57628;BME280;43451;49.060;10.616;2024-01-30T11:19:26;98110.00;;;5.68;100.00
57628;BME280;43451;49.060;10.616;2024-01-30T11:21:54;98118.97;;;5.80;100.00
57628;BME280;43451;49.060;10.616;2024-01-30T11:24:23;98107.25;;;5.76;100.00
57628;BME280;43451;49.060;10.616;2024-01-30T11:27:02;98104.50;;;5.85;100.00
57628;BME280;43451;49.060;10.616;2024-01-30T11:29:35;98098.75;;;5.95;100.00
57628;BME280;43451;49.060;10.616;2024-01-30T11:32:00;98091.88;;;6.07;100.00
57628;BME280;43451;49.060;10.616;2024-01-30T11:34:26;98098.53;;;6.30;100.00
57628;BME280;43451;49.060;10.616;2024-01-30T11:36:56;98091.41;;;6.46;100.00
57628;BME280;43451;49.060;10.616;2024-01-30T11:39:25;98091.41;;;6.46;100.00
57628;BME280;43451;49.060;10.616;2024-01-30T11:41:52;98084.38;;;6.54;100.00
57628;BME280;43451;49.060;10.616;2024-01-30T11:44:22;98082.47;;;6.55;100.00
57628;BME280;43451;49.060;10.616;2024-01-30T11:46:51;98092.25;;;6.59;100.00
57628;BME280;43451;49.060;10.616;2024-01-30T11:49:17;98085.66;;;6.69;100.00
57628;BME280;43451;49.060;10.616;2024-01-30T11:51:45;98078.97;;;6.87;100.00
57628;BME280;43451;49.060;10.616;2024-01-30T11:54:10;98072.97;;;7.15;100.00
57628;BME280;43451;49.060;10.616;2024-01-30T11:56:37;98077.03;;;7.21;100.00
57628;BME280;43451;49.060;10.616;2024-01-30T11:59:04;98069.59;;;7.18;100.00
57628;BME280;43451;49.060;10.616;2024-01-30T12:01:31;98079.78;;;7.46;100.00
57628;BME280;43451;49.060;10.616;2024-01-30T12:03:59;98073.81;;;7.52;100.00
57628;BME280;43451;49.060;10.616;2024-01-30T12:06:25;98069.50;;;7.63;100.00
57628;BME280;43451;49.060;10.616;2024-01-30T12:09:01;98063.78;;;7.65;100.00
57628;BME280;43451;49.060;10.616;2024-01-30T12:11:30;98069.88;;;7.62;100.00
57628;BME280;43451;49.060;10.616;2024-01-30T12:13:56;98065.56;;;7.73;100.00
57628;BME280;43451;49.060;10.616;2024-01-30T12:16:22;98063.31;;;7.63;100.00
57628;BME280;43451;49.060;10.616;2024-01-30T12:18:48;98065.13;;;7.59;100.00
57628;BME280;43451;49.060;10.616;2024-01-30T12:21:17;98054.22;;;7.55;100.00
57628;BME280;43451;49.060;10.616;2024-01-30T12:23:44;98056.66;;;7.60;100.00
57628;BME280;43451;49.060;10.616;2024-01-30T12:26:10;98054.84;;;7.77;100.00
57628;BME280;43451;49.060;10.616;2024-01-30T12:28:36;98049.22;;;7.70;100.00
57628;BME280;43451;49.060;10.616;2024-01-30T12:31:02;98047.78;;;7.72;100.00
57628;BME280;43451;49.060;10.616;2024-01-30T12:33:29;98048.22;;;7.74;100.00
57628;BME280;43451;49.060;10.616;2024-01-30T12:35:56;98046.97;;;7.72;100.00
57628;BME280;43451;49.060;10.616;2024-01-30T12:38:23;98050.69;;;7.67;100.00
57628;BME280;43451;49.060;10.616;2024-01-30T12:40:54;98051.38;;;7.64;100.00